Time;durP1;ratioP1;P1;durP2;ratioP2;P2;SDS_P1;SDS_P2;PMS_P1;PMS_P2;Temp;Humidity;BMP_temperature;BMP_pressure;BME280_temperature;BME280_humidity;BME280_pressure;Samples;Min_cycle;Max_cycle;Signal;HPM_P1;HPM_P2
2022/01/15 00:00:13;;;;;;;6.33;5.60;;;;;;;4.72;96.86;102445.53;4999247;28;20203;-73
2022/01/15 00:02:40;;;;;;;6.30;5.03;;;;;;;4.74;96.89;102448.16;4994761;28;20225;-73
2022/01/15 00:05:08;;;;;;;6.50;4.97;;;;;;;4.72;96.45;102458.72;4995337;28;20744;-72
2022/01/15 00:07:35;;;;;;;8.00;5.50;;;;;;;4.72;96.69;102453.44;5002366;28;20660;-75
2022/01/15 00:10:02;;;;;;;6.73;5.47;;;;;;;4.72;96.80;102456.06;4995587;28;20212;-73
2022/01/15 00:12:35;;;;;;;7.63;4.90;;;;;;;4.73;96.91;102451.66;5003647;28;20204;-73
2022/01/15 00:15:01;;;;;;;6.33;5.17;;;;;;;4.72;96.59;102448.16;5001382;28;20227;-72
2022/01/15 00:17:44;;;;;;;5.50;4.60;;;;;;;4.72;96.32;102450.78;4998426;28;20211;-73
2022/01/15 00:20:14;;;;;;;7.20;5.00;;;;;;;4.70;96.39;102447.28;4998577;28;20230;-72
2022/01/15 00:22:41;;;;;;;5.30;4.40;;;;;;;4.70;96.16;102438.50;4999869;28;20313;-75
2022/01/15 00:25:08;;;;;;;5.93;4.50;;;;;;;4.70;96.54;102442.00;5004615;28;20227;-72
2022/01/15 00:27:35;;;;;;;5.90;4.77;;;;;;;4.69;96.21;102440.25;4996299;28;20203;-75
2022/01/15 00:30:03;;;;;;;5.43;4.83;;;;;;;4.69;96.52;102435.00;5001434;28;20207;-73
2022/01/15 00:32:30;;;;;;;6.77;5.23;;;;;;;4.68;96.55;102435.88;4993075;28;20204;-73
2022/01/15 00:34:57;;;;;;;6.40;4.80;;;;;;;4.69;96.50;102436.75;5000908;28;20606;-73
2022/01/15 00:37:25;;;;;;;7.63;4.70;;;;;;;4.67;96.68;102436.75;5004191;28;20218;-75
2022/01/15 00:39:51;;;;;;;7.13;4.93;;;;;;;4.67;96.18;102436.75;4996582;28;20214;-73
2022/01/15 00:42:18;;;;;;;6.37;5.30;;;;;;;4.68;96.48;102443.78;5006817;28;20210;-74
2022/01/15 00:44:49;;;;;;;5.27;4.60;;;;;;;4.67;96.29;102434.13;5010158;28;20607;-73
2022/01/15 00:47:15;;;;;;;7.47;5.50;;;;;;;4.67;96.59;102438.53;5016698;28;20202;-73
2022/01/15 00:49:42;;;;;;;7.03;5.20;;;;;;;4.67;96.21;102439.41;5006142;28;20212;-74
2022/01/15 00:52:08;;;;;;;6.60;4.97;;;;;;;4.67;95.92;102444.69;5012154;28;20572;-73
2022/01/15 00:54:36;;;;;;;9.57;5.50;;;;;;;4.66;96.34;102435.00;5023665;28;20238;-73
2022/01/15 00:57:03;;;;;;;8.40;5.83;;;;;;;4.66;96.09;102434.16;5017922;28;20203;-73
2022/01/15 00:59:30;;;;;;;7.13;5.73;;;;;;;4.66;96.06;102437.66;5013918;28;20211;-74
2022/01/15 01:01:56;;;;;;;8.20;6.30;;;;;;;4.67;96.33;102431.50;5012714;28;20207;-73
2022/01/15 01:04:23;;;;;;;9.10;6.37;;;;;;;4.67;96.55;102434.13;5013068;28;20234;-73
2022/01/15 01:06:50;;;;;;;7.57;6.00;;;;;;;4.66;96.29;102424.47;5015678;28;20211;-73
2022/01/15 01:09:16;;;;;;;8.80;6.83;;;;;;;4.67;96.34;102422.69;5010902;28;20206;-73
2022/01/15 01:11:47;;;;;;;8.70;6.97;;;;;;;4.67;96.53;102414.78;5021131;28;20214;-75
2022/01/15 01:25:10;;;;;;;10.43;8.23;;;;;;;4.67;96.10;102412.13;5003759;28;20233;-74
2022/01/15 01:27:47;;;;;;;9.50;6.97;;;;;;;4.65;96.25;102414.81;5011718;28;20215;-74
2022/01/15 01:30:20;;;;;;;10.33;7.60;;;;;;;4.65;96.24;102404.28;5013025;28;20341;-75
2022/01/15 01:32:58;;;;;;;12.53;8.50;;;;;;;4.66;95.94;102408.63;5011397;28;20770;-74
2022/01/15 01:35:36;;;;;;;12.27;8.67;;;;;;;4.65;96.43;102401.63;5012317;28;20240;-75
2022/01/15 01:38:12;;;;;;;12.40;8.87;;;;;;;4.65;96.50;102403.41;5010880;28;20457;-74
2022/01/15 01:40:41;;;;;;;12.07;8.70;;;;;;;4.66;96.10;102411.25;5014973;28;20212;-74
2022/01/15 01:43:39;;;;;;;13.10;9.30;;;;;;;4.65;96.09;102412.19;5007742;28;20308;-74
2022/01/15 01:46:18;;;;;;;13.53;9.03;;;;;;;4.65;96.15;102409.53;5011611;28;20211;-73
2022/01/15 01:48:45;;;;;;;13.83;9.63;;;;;;;4.65;96.03;102409.53;5010783;28;20202;-74
2022/01/15 01:51:20;;;;;;;17.23;10.37;;;;;;;4.65;96.06;102396.34;5015026;28;20203;-73
2022/01/15 01:53:48;;;;;;;16.53;9.90;;;;;;;4.66;96.24;102397.22;5017168;28;20316;-73
2022/01/15 01:56:14;;;;;;;19.23;10.40;;;;;;;4.66;96.49;102402.50;5010781;28;20203;-74
2022/01/15 01:58:43;;;;;;;15.97;10.33;;;;;;;4.64;96.14;102399.88;5011365;28;20677;-73
2022/01/15 02:01:09;;;;;;;17.40;10.67;;;;;;;4.65;96.31;102395.47;5012941;28;20698;-74
2022/01/15 02:06:05;;;;;;;14.63;10.07;;;;;;;4.65;96.33;102396.34;5008196;28;20219;-74
2022/01/15 02:08:34;;;;;;;16.87;10.10;;;;;;;4.65;96.45;102388.44;5008358;28;20210;-72
2022/01/15 02:11:03;;;;;;;17.37;10.57;;;;;;;4.65;96.05;102384.91;5012372;28;20656;-72
2022/01/15 02:13:30;;;;;;;15.47;10.20;;;;;;;4.65;96.48;102379.63;5011317;28;20574;-73
2022/01/15 02:15:58;;;;;;;16.50;10.03;;;;;;;4.65;96.45;102383.16;4998326;28;20227;-72
2022/01/15 02:18:25;;;;;;;17.10;11.30;;;;;;;4.65;96.14;102377.88;5006661;28;20206;-73
2022/01/15 02:23:41;;;;;;;16.03;10.60;;;;;;;4.65;96.20;102375.25;5010482;28;20225;-73
2022/01/15 02:26:09;;;;;;;15.87;11.03;;;;;;;4.64;95.84;102362.94;5006239;28;20294;-73
2022/01/15 02:28:38;;;;;;;17.17;10.37;;;;;;;4.65;95.96;102362.03;5004908;28;20203;-73
2022/01/15 02:31:07;;;;;;;16.90;10.87;;;;;;;4.65;96.33;102364.69;5004470;28;20214;-73
2022/01/15 02:33:34;;;;;;;14.83;9.87;;;;;;;4.63;95.98;102361.19;5000086;28;20207;-71
2022/01/15 02:36:04;;;;;;;15.87;10.33;;;;;;;4.63;95.93;102363.81;5015143;28;20689;-73
2022/01/15 02:38:30;;;;;;;18.57;10.73;;;;;;;4.64;96.25;102357.66;5017918;28;20210;-70
2022/01/15 02:40:57;;;;;;;14.43;10.03;;;;;;;4.64;96.44;102365.56;5007445;28;20214;-72
2022/01/15 02:43:29;;;;;;;16.17;10.27;;;;;;;4.64;96.41;102357.66;5003937;28;20234;-72
2022/01/15 02:45:56;;;;;;;15.90;9.83;;;;;;;4.65;96.04;102351.50;5016811;28;20573;-72
2022/01/15 02:48:25;;;;;;;17.83;10.67;;;;;;;4.65;95.98;102350.63;5001184;28;20665;-72
2022/01/15 02:50:52;;;;;;;14.83;9.97;;;;;;;4.63;96.44;102353.28;5000420;28;20641;-72
2022/01/15 02:53:20;;;;;;;15.60;10.13;;;;;;;4.64;96.19;102351.50;5016795;28;20203;-72
2022/01/15 02:55:49;;;;;;;16.30;10.73;;;;;;;4.65;96.10;102348.84;5008664;28;20719;-73
2022/01/15 02:58:17;;;;;;;14.67;10.43;;;;;;;4.65;96.52;102343.56;5008525;28;20575;-72
2022/01/15 03:00:43;;;;;;;14.20;10.30;;;;;;;4.65;96.06;102338.28;5009198;28;20206;-73
2022/01/15 03:03:10;;;;;;;13.93;10.00;;;;;;;4.64;96.08;102328.63;5004237;28;20227;-73
2022/01/15 03:05:37;;;;;;;13.80;9.23;;;;;;;4.65;96.22;102333.00;5009075;28;20242;-73
2022/01/15 03:08:03;;;;;;;13.63;8.63;;;;;;;4.66;96.35;102331.25;5018538;28;20210;-73
2022/01/15 03:10:31;;;;;;;14.97;9.83;;;;;;;4.65;95.89;102333.00;5009375;28;20194;-72
2022/01/15 03:12:59;;;;;;;11.90;9.07;;;;;;;4.65;96.44;102333.00;5005493;28;20440;-72
2022/01/15 03:15:27;;;;;;;15.27;9.33;;;;;;;4.65;96.08;102330.38;5010256;28;20644;-72
2022/01/15 03:17:54;;;;;;;12.27;9.23;;;;;;;4.66;96.23;102331.25;5008154;28;20207;-72
2022/01/15 03:20:21;;;;;;;11.53;8.30;;;;;;;4.65;96.61;102322.47;5010471;28;20214;-72
2022/01/15 03:22:48;;;;;;;14.93;8.60;;;;;;;4.65;95.96;102330.38;5002986;28;20222;-72
2022/01/15 03:25:15;;;;;;;12.13;8.17;;;;;;;4.63;96.03;102326.00;5003340;28;20226;-73
2022/01/15 03:27:43;;;;;;;10.97;7.47;;;;;;;4.63;96.27;102328.66;5022080;28;20397;-72
2022/01/15 03:30:12;;;;;;;11.40;8.40;;;;;;;4.62;96.05;102330.41;5004767;28;20210;-73
2022/01/15 03:32:42;;;;;;;12.40;8.57;;;;;;;4.62;96.12;102325.13;5005266;28;20225;-72
2022/01/15 03:35:10;;;;;;;12.70;8.63;;;;;;;4.63;96.19;102312.81;4999113;28;20698;-73
2022/01/15 03:37:37;;;;;;;14.07;8.80;;;;;;;4.62;95.93;102308.41;5003854;28;20204;-73
2022/01/15 03:40:05;;;;;;;12.90;8.80;;;;;;;4.61;95.88;102310.19;5004206;28;20208;-71
2022/01/15 03:42:31;;;;;;;13.37;8.43;;;;;;;4.61;96.24;102318.09;5003716;28;20666;-72
2022/01/15 03:44:59;;;;;;;12.57;7.83;;;;;;;4.61;95.93;102311.94;4997320;28;20247;-73
2022/01/15 03:47:26;;;;;;;13.70;8.43;;;;;;;4.59;95.98;102306.69;5002916;28;20298;-72
2022/01/15 03:49:52;;;;;;;13.60;8.60;;;;;;;4.60;95.97;102297.00;5001502;28;20206;-73
2022/01/15 03:52:19;;;;;;;11.23;8.57;;;;;;;4.59;96.30;102297.91;4997558;28;20212;-72
2022/01/15 03:54:45;;;;;;;13.03;8.37;;;;;;;4.60;95.85;102299.66;5002959;28;20688;-72
2022/01/15 03:57:12;;;;;;;12.77;7.97;;;;;;;4.59;96.11;102297.91;5012565;28;20214;-73
2022/01/15 03:59:40;;;;;;;12.40;8.70;;;;;;;4.59;96.07;102301.41;5008546;28;20692;-72
2022/01/15 04:02:08;;;;;;;12.87;8.57;;;;;;;4.60;96.21;102299.66;4999841;28;20211;-72
2022/01/15 04:04:35;;;;;;;11.77;7.97;;;;;;;4.59;96.42;102301.41;5003927;28;20222;-73
2022/01/15 04:07:01;;;;;;;12.40;8.73;;;;;;;4.60;96.29;102307.56;5008536;28;20589;-73
2022/01/15 04:09:28;;;;;;;12.50;8.50;;;;;;;4.60;96.09;102295.25;4993514;28;20214;-72
2022/01/15 04:11:54;;;;;;;11.20;8.60;;;;;;;4.59;96.09;102285.56;5009453;28;20585;-72
2022/01/15 04:14:21;;;;;;;12.07;8.53;;;;;;;4.59;96.00;102285.56;5007334;28;20215;-73
2022/01/15 04:16:48;;;;;;;12.87;8.60;;;;;;;4.59;96.20;102275.03;5004909;28;20214;-73
2022/01/15 04:19:16;;;;;;;13.70;8.87;;;;;;;4.60;95.96;102278.53;5009328;28;20217;-72
2022/01/15 04:21:42;;;;;;;13.67;9.40;;;;;;;4.60;96.32;102283.81;5010006;28;20246;-72
2022/01/15 04:24:09;;;;;;;14.47;9.17;;;;;;;4.59;95.93;102276.78;5009737;28;20723;-72
2022/01/15 04:26:36;;;;;;;14.03;8.90;;;;;;;4.60;96.36;102275.91;5012297;28;20215;-72
2022/01/15 04:29:04;;;;;;;14.70;9.67;;;;;;;4.59;96.29;102269.75;5012962;28;20206;-73
2022/01/15 04:31:45;;;;;;;15.03;9.93;;;;;;;4.60;96.24;102271.50;5013105;28;20215;-73
2022/01/15 04:34:12;;;;;;;13.90;9.07;;;;;;;4.60;95.94;102276.78;5003240;28;20227;-73
2022/01/15 04:36:40;;;;;;;16.23;9.77;;;;;;;4.60;95.99;102284.69;5005990;28;20672;-73
2022/01/15 04:39:06;;;;;;;15.87;10.33;;;;;;;4.61;96.03;102278.53;4998132;28;20208;-73
2022/01/15 04:41:33;;;;;;;16.07;10.20;;;;;;;4.60;96.02;102283.81;5001424;28;20203;-73
2022/01/15 04:43:59;;;;;;;17.50;10.53;;;;;;;4.60;95.91;102276.78;5006511;28;20231;-73
2022/01/15 04:46:26;;;;;;;15.00;9.60;;;;;;;4.61;95.91;102278.53;5006239;28;20210;-73
2022/01/15 04:48:52;;;;;;;16.47;10.03;;;;;;;4.61;95.99;102291.72;4997240;28;20681;-73
2022/01/15 04:51:19;;;;;;;17.10;10.63;;;;;;;4.61;96.42;102277.66;5005378;28;20211;-72
2022/01/15 04:53:47;;;;;;;14.00;9.50;;;;;;;4.61;96.19;102277.66;5015591;28;20203;-72
2022/01/15 04:56:13;;;;;;;16.97;9.70;;;;;;;4.61;95.87;102289.06;5009557;28;20211;-72
2022/01/15 04:58:40;;;;;;;21.03;11.40;;;;;;;4.60;96.36;102287.31;5006190;28;20219;-72
2022/01/15 05:01:06;;;;;;;18.10;10.23;;;;;;;4.60;96.16;102289.97;5001275;28;20215;-73
2022/01/15 05:03:33;;;;;;;15.80;10.57;;;;;;;4.62;95.86;102296.09;4993783;28;20224;-73
2022/01/15 05:06:00;;;;;;;16.07;9.63;;;;;;;4.62;96.21;102284.66;5012178;28;20245;-73
2022/01/15 05:08:26;;;;;;;16.17;10.77;;;;;;;4.61;96.33;102291.72;5001528;28;20207;-73
2022/01/15 05:10:58;;;;;;;14.43;9.90;;;;;;;4.62;96.16;102292.59;5009494;28;20211;-73
2022/01/15 05:13:28;;;;;;;16.50;10.07;;;;;;;4.62;96.22;102292.59;5012801;28;20286;-72
2022/01/15 05:15:55;;;;;;;16.40;10.57;;;;;;;4.61;96.08;102289.06;5008312;28;20740;-72
2022/01/15 05:18:22;;;;;;;15.73;10.20;;;;;;;4.62;95.99;102292.59;5011452;28;20207;-73
2022/01/15 05:20:49;;;;;;;17.17;10.17;;;;;;;4.62;95.93;102295.22;5010519;28;20222;-72
2022/01/15 05:23:15;;;;;;;14.47;9.17;;;;;;;4.62;95.87;102288.19;5000031;28;20302;-71
2022/01/15 05:25:45;;;;;;;16.93;10.63;;;;;;;4.62;95.91;102288.19;5005945;28;20231;-73
2022/01/15 05:28:12;;;;;;;14.17;8.77;;;;;;;4.61;95.89;102289.06;5006732;28;20210;-73
2022/01/15 05:30:39;;;;;;;14.33;9.73;;;;;;;4.62;96.08;102279.41;5000371;28;20218;-72
2022/01/15 05:33:06;;;;;;;18.23;10.33;;;;;;;4.61;95.98;102278.53;5007127;28;20219;-73
2022/01/15 05:35:32;;;;;;;17.53;11.40;;;;;;;4.61;96.34;102286.44;5009901;28;20226;-73
2022/01/15 05:38:00;;;;;;;17.27;9.90;;;;;;;4.61;95.84;102291.72;5004527;28;20206;-73
2022/01/15 05:40:28;;;;;;;15.73;10.10;;;;;;;4.61;96.14;102283.78;5006189;28;20217;-71
2022/01/15 05:42:54;;;;;;;15.30;9.63;;;;;;;4.59;95.69;102290.84;5006994;28;20210;-73
2022/01/15 05:45:24;;;;;;;17.27;10.80;;;;;;;4.60;96.08;102291.72;5007963;28;20230;-74
2022/01/15 05:47:50;;;;;;;16.07;10.50;;;;;;;4.59;95.88;102295.25;5010461;28;20298;-72
2022/01/15 05:50:17;;;;;;;16.13;9.63;;;;;;;4.58;95.99;102296.16;5001198;28;20203;-70
2022/01/15 05:52:44;;;;;;;16.13;10.33;;;;;;;4.57;96.16;102292.63;5002002;28;20216;-73
2022/01/15 05:55:10;;;;;;;19.00;11.37;;;;;;;4.58;96.14;102291.75;5011924;28;20231;-72
2022/01/15 05:57:37;;;;;;;17.63;10.47;;;;;;;4.56;96.27;102287.38;5005829;28;20287;-71
2022/01/15 06:00:05;;;;;;;18.27;10.20;;;;;;;4.56;96.33;102285.63;5008173;28;20207;-72
2022/01/15 06:02:34;;;;;;;20.67;11.10;;;;;;;4.55;96.06;102289.13;5007776;28;20676;-73
2022/01/15 06:05:00;;;;;;;17.37;10.73;;;;;;;4.55;95.78;102294.41;5006571;28;20239;-73
2022/01/15 06:07:27;;;;;;;20.97;11.90;;;;;;;4.54;96.05;102288.28;5006415;28;20593;-73
2022/01/15 06:09:53;;;;;;;19.83;11.07;;;;;;;4.54;95.84;102283.00;5002439;28;20211;-73
2022/01/15 06:12:27;;;;;;;19.63;11.03;;;;;;;4.54;96.04;102268.94;5005012;28;20218;-72
2022/01/15 06:14:54;;;;;;;22.00;11.77;;;;;;;4.54;96.27;102276.84;5007761;28;20310;-72
2022/01/15 06:17:20;;;;;;;18.10;11.53;;;;;;;4.52;95.99;102274.22;5007777;28;20203;-72
2022/01/15 06:19:48;;;;;;;16.60;10.53;;;;;;;4.53;95.94;102268.06;5002087;28;20661;-72
2022/01/15 06:22:15;;;;;;;19.27;10.90;;;;;;;4.52;95.77;102265.44;5004125;28;20211;-73
2022/01/15 06:24:41;;;;;;;20.90;11.90;;;;;;;4.51;96.03;102261.03;4994010;28;20238;-71
2022/01/15 06:27:11;;;;;;;23.00;11.77;;;;;;;4.50;95.79;102257.53;5007247;28;20206;-72
2022/01/15 06:29:38;;;;;;;17.50;10.53;;;;;;;4.50;96.19;102259.28;5005649;28;20497;-72
2022/01/15 06:32:05;;;;;;;19.80;11.63;;;;;;;4.50;95.90;102267.22;5002332;28;20221;-72
2022/01/15 06:34:31;;;;;;;21.33;10.93;;;;;;;4.50;95.62;102261.94;5003561;28;20227;-72
2022/01/15 06:36:59;;;;;;;17.10;10.17;;;;;;;4.48;95.83;102251.41;4999400;28;20211;-73
2022/01/15 06:39:26;;;;;;;17.93;10.60;;;;;;;4.49;95.51;102257.53;5000168;28;20199;-73
2022/01/15 06:41:52;;;;;;;18.30;11.40;;;;;;;4.48;95.54;102266.34;5000819;28;20214;-73
2022/01/15 06:44:19;;;;;;;17.90;10.73;;;;;;;4.48;95.63;102271.63;5005186;28;20238;-73
2022/01/15 06:46:45;;;;;;;22.73;11.67;;;;;;;4.46;96.02;102258.50;5007289;28;20215;-73
2022/01/15 06:49:12;;;;;;;18.77;11.90;;;;;;;4.47;95.61;102265.50;4998709;28;20572;-73
2022/01/15 06:51:38;;;;;;;19.83;11.60;;;;;;;4.47;95.69;102267.28;5010635;28;20217;-72
2022/01/15 06:54:06;;;;;;;18.47;10.77;;;;;;;4.47;95.75;102275.19;4997699;28;20245;-72
2022/01/15 06:56:33;;;;;;;20.27;10.97;;;;;;;4.47;95.76;102277.81;5002550;28;20209;-73
2022/01/15 06:58:59;;;;;;;22.40;11.97;;;;;;;4.47;95.61;102277.81;5005672;28;20207;-72
2022/01/15 07:01:26;;;;;;;21.50;12.03;;;;;;;4.47;95.80;102277.81;5002167;28;20607;-71
2022/01/15 07:03:52;;;;;;;23.90;11.23;;;;;;;4.46;95.74;102274.31;5006052;28;20206;-73
2022/01/15 07:06:19;;;;;;;20.30;11.43;;;;;;;4.46;95.59;102276.06;5005622;28;20225;-72
2022/01/15 07:08:45;;;;;;;20.07;10.63;;;;;;;4.45;95.22;102279.59;5002671;28;20208;-70
2022/01/15 07:11:13;;;;;;;25.33;12.57;;;;;;;4.44;95.84;102286.66;5006859;28;20210;-71
2022/01/15 07:13:40;;;;;;;20.23;11.67;;;;;;;4.44;95.51;102281.38;5001727;28;20207;-72
2022/01/15 07:16:06;;;;;;;18.87;11.73;;;;;;;4.44;95.55;102281.38;5005773;28;20673;-72
2022/01/15 07:18:33;;;;;;;19.27;10.87;;;;;;;4.44;95.66;102281.38;5005640;28;20225;-72
2022/01/15 07:21:00;;;;;;;18.60;11.17;;;;;;;4.44;95.77;102284.00;4999753;28;20739;-72
2022/01/15 07:23:26;;;;;;;20.30;12.00;;;;;;;4.42;95.57;102280.50;5001799;28;20215;-73
2022/01/15 07:25:53;;;;;;;17.53;11.40;;;;;;;4.42;95.87;102280.50;5004999;28;20226;-70
2022/01/15 07:28:20;;;;;;;20.23;11.73;;;;;;;4.40;95.24;102279.66;5015149;28;20577;-73
2022/01/15 07:30:47;;;;;;;22.30;11.23;;;;;;;4.39;95.51;102274.38;5007339;28;20203;-73
2022/01/15 07:33:14;;;;;;;19.37;11.63;;;;;;;4.39;95.20;102279.66;5009202;28;20203;-73
2022/01/15 07:35:43;;;;;;;19.33;10.20;;;;;;;4.38;95.77;102277.91;5010713;28;20242;-73
2022/01/15 07:38:12;;;;;;;20.97;11.80;;;;;;;4.37;95.68;102270.91;5003007;28;20696;-73
2022/01/15 07:40:39;;;;;;;19.67;11.70;;;;;;;4.37;95.74;102260.34;5002215;28;20203;-70
2022/01/15 07:43:06;;;;;;;21.37;11.63;;;;;;;4.36;95.56;102262.09;5008089;28;20687;-73
2022/01/15 07:45:34;;;;;;;23.30;11.87;;;;;;;4.35;95.32;102270.91;5009485;28;20233;-73
2022/01/15 07:48:00;;;;;;;25.60;12.87;;;;;;;4.35;95.25;102267.41;5021399;28;20211;-71
2022/01/15 07:50:27;;;;;;;23.83;11.80;;;;;;;4.35;95.21;102264.75;5010070;28;20207;-72
2022/01/15 07:52:54;;;;;;;22.33;11.60;;;;;;;4.34;95.70;102266.53;5011789;28;20206;-72
2022/01/15 07:55:21;;;;;;;25.97;12.17;;;;;;;4.36;95.69;102266.50;5006949;28;20230;-73
2022/01/15 07:57:48;;;;;;;22.87;12.40;;;;;;;4.36;95.10;102262.09;5011319;28;20564;-73
2022/01/15 08:00:16;;;;;;;24.33;12.63;;;;;;;4.35;95.36;102257.72;5013456;28;20660;-70
2022/01/15 08:02:44;;;;;;;19.10;12.13;;;;;;;4.36;95.77;102271.78;5017694;28;20205;-73
2022/01/15 08:05:12;;;;;;;23.10;11.93;;;;;;;4.35;95.60;102272.69;5045664;22;20245;-72
2022/01/15 08:07:40;;;;;;;26.03;14.43;;;;;;;4.36;95.40;102271.78;5026976;28;20667;-72
2022/01/15 08:10:07;;;;;;;21.97;12.40;;;;;;;4.36;95.80;102266.50;5029719;28;20234;-72
2022/01/15 08:12:34;;;;;;;20.50;11.60;;;;;;;4.34;95.62;102260.38;5037156;28;20198;-72
2022/01/15 08:15:00;;;;;;;23.70;12.13;;;;;;;4.35;95.13;102264.75;5050951;28;20225;-71
2022/01/15 08:17:28;;;;;;;23.67;12.47;;;;;;;4.35;95.52;102251.56;5035608;28;20892;-72
2022/01/15 08:19:56;;;;;;;22.03;11.83;;;;;;;4.36;95.77;102258.59;5039139;28;20202;-71
2022/01/15 08:22:22;;;;;;;21.13;11.50;;;;;;;4.36;95.76;102255.97;5038623;28;20207;-72
2022/01/15 08:24:50;;;;;;;19.67;11.77;;;;;;;4.38;95.36;102256.81;5028366;28;20614;-72
2022/01/15 08:27:16;;;;;;;21.63;12.00;;;;;;;4.38;95.66;102259.47;5034003;28;20587;-71
2022/01/15 08:29:43;;;;;;;24.17;11.73;;;;;;;4.39;95.62;102251.53;5033410;28;20221;-71
2022/01/15 08:32:09;;;;;;;33.40;14.00;;;;;;;4.41;95.75;102260.28;5039702;28;20206;-71
2022/01/15 08:34:37;;;;;;;39.23;14.67;;;;;;;4.42;95.63;102256.78;5040358;28;20235;-72
2022/01/15 08:37:05;;;;;;;28.00;12.37;;;;;;;4.44;95.59;102256.75;5037354;28;20296;-71
2022/01/15 08:39:32;;;;;;;25.97;12.97;;;;;;;4.44;95.41;102257.63;5033123;28;20686;-71
2022/01/15 08:41:59;;;;;;;25.17;12.27;;;;;;;4.46;95.71;102249.69;5032382;28;20249;-72
2022/01/15 08:44:25;;;;;;;30.43;13.40;;;;;;;4.47;95.76;102249.69;5026691;28;20210;-71
2022/01/15 08:46:52;;;;;;;26.50;12.93;;;;;;;4.49;95.85;102247.00;5032756;28;20222;-71
2022/01/15 08:49:19;;;;;;;35.90;13.57;;;;;;;4.50;95.68;102251.38;5025256;28;20202;-72
2022/01/15 08:51:46;;;;;;;26.13;13.37;;;;;;;4.54;95.82;102256.59;5027309;28;20214;-71
2022/01/15 08:54:14;;;;;;;25.50;14.30;;;;;;;4.55;96.01;102252.19;5030784;28;20202;-70
2022/01/15 08:56:41;;;;;;;27.53;13.93;;;;;;;4.58;96.04;102252.16;5026332;28;20674;-72
2022/01/15 08:59:07;;;;;;;26.90;14.00;;;;;;;4.60;95.75;102254.78;5029182;28;20723;-71
2022/01/15 09:01:34;;;;;;;27.30;14.07;;;;;;;4.62;95.93;102256.53;5041163;28;20205;-74
2022/01/15 09:04:00;;;;;;;28.40;14.03;;;;;;;4.64;95.60;102251.22;5036880;28;20305;-72
2022/01/15 09:06:27;;;;;;;25.27;13.03;;;;;;;4.66;95.53;102252.91;5038510;28;20603;-72
2022/01/15 09:08:54;;;;;;;24.43;13.17;;;;;;;4.67;96.14;102254.66;5030046;28;20672;-72
2022/01/15 09:11:22;;;;;;;27.57;12.63;;;;;;;4.68;95.86;102264.34;5027216;28;20209;-72
2022/01/15 09:13:49;;;;;;;27.73;13.93;;;;;;;4.71;95.62;102263.41;5024506;28;20626;-72
2022/01/15 09:16:15;;;;;;;27.60;13.23;;;;;;;4.73;96.01;102267.78;5030286;28;20221;-72
2022/01/15 09:18:42;;;;;;;26.57;14.27;;;;;;;4.75;96.13;102260.72;5029011;28;20260;-75
2022/01/15 09:21:10;;;;;;;25.00;13.17;;;;;;;4.78;95.77;102259.81;5025364;28;20210;-72
2022/01/15 09:23:37;;;;;;;29.23;14.67;;;;;;;4.79;96.28;102265.09;5029385;28;20808;-70
2022/01/15 09:26:03;;;;;;;26.97;15.37;;;;;;;4.81;96.11;102265.94;5023141;28;20234;-72
2022/01/15 09:31:15;;;;;;;24.00;13.13;;;;;;;4.85;96.12;102264.09;5018726;28;20316;-72
2022/01/15 09:33:42;;;;;;;24.63;14.13;;;;;;;4.85;95.70;102259.69;5026755;28;20205;-73
2022/01/15 09:36:08;;;;;;;28.30;13.93;;;;;;;4.87;95.86;102254.41;5021542;28;20237;-72
2022/01/15 09:38:35;;;;;;;26.83;14.63;;;;;;;4.87;96.23;102255.28;5031590;28;20683;-71
2022/01/15 09:41:01;;;;;;;27.63;15.13;;;;;;;4.89;96.05;102249.97;5026317;28;20224;-70
2022/01/15 09:43:29;;;;;;;28.37;15.60;;;;;;;4.92;95.97;102251.69;5028113;28;20215;-71
2022/01/15 09:45:59;;;;;;;26.20;14.90;;;;;;;4.94;95.90;102256.06;5024261;28;20229;-72
2022/01/15 09:48:27;;;;;;;27.37;14.63;;;;;;;4.96;95.94;102253.41;5016803;28;20297;-71
2022/01/15 09:50:54;;;;;;;23.23;14.33;;;;;;;4.98;96.11;102257.78;5018971;28;20210;-71
2022/01/15 09:53:21;;;;;;;22.83;13.50;;;;;;;5.02;96.12;102255.94;5023915;28;20958;-71
2022/01/15 09:55:48;;;;;;;25.80;13.60;;;;;;;5.03;95.98;102255.03;5023147;28;20226;-70
2022/01/15 09:58:15;;;;;;;27.03;13.87;;;;;;;5.05;95.96;102248.84;5024532;28;20628;-70
2022/01/15 10:00:42;;;;;;;24.77;13.27;;;;;;;5.06;95.88;102253.22;5023530;28;20208;-70
2022/01/15 10:03:09;;;;;;;25.53;14.07;;;;;;;5.08;96.12;102247.94;5025982;28;20218;-69
2022/01/15 10:05:36;;;;;;;20.70;12.53;;;;;;;5.10;95.90;102251.44;5022086;28;20233;-71
2022/01/15 10:08:05;;;;;;;19.70;11.73;;;;;;;5.12;95.51;102239.06;5024281;28;20207;-70
2022/01/15 10:10:34;;;;;;;21.93;12.23;;;;;;;5.11;95.66;102235.56;5020101;28;20206;-70
2022/01/15 10:13:13;;;;;;;21.43;12.60;;;;;;;5.13;95.57;102241.69;5024459;28;20225;-74
2022/01/15 10:15:40;;;;;;;23.03;12.63;;;;;;;5.15;95.50;102241.66;5018580;28;20218;-71
2022/01/15 10:18:20;;;;;;;17.70;11.00;;;;;;;5.17;95.64;102237.25;5018169;28;20581;-72
2022/01/15 10:20:46;;;;;;;22.43;13.97;;;;;;;5.18;95.45;102234.59;5021140;28;20202;-70
2022/01/15 10:23:16;;;;;;;25.27;13.03;;;;;;;5.20;95.38;102221.31;5026261;28;20203;-71
2022/01/15 10:25:42;;;;;;;29.37;14.43;;;;;;;5.23;95.31;102223.91;5014537;28;20237;-72
2022/01/15 10:28:09;;;;;;;23.10;13.63;;;;;;;5.25;95.20;102216.84;5012095;28;20209;-71
2022/01/15 10:30:37;;;;;;;22.03;13.03;;;;;;;5.28;95.21;102224.72;5019540;28;20296;-72
2022/01/15 10:33:06;;;;;;;22.53;13.53;;;;;;;5.31;95.09;102232.59;5019003;28;20708;-71
2022/01/15 10:35:36;;;;;;;19.67;12.80;;;;;;;5.33;94.71;102230.81;5022722;28;20235;-72
2022/01/15 10:38:05;;;;;;;22.50;12.93;;;;;;;5.36;94.90;102221.97;5026720;28;20569;-72
2022/01/15 10:40:39;;;;;;;22.00;13.10;;;;;;;5.37;94.90;102216.66;5020929;28;20209;-72
2022/01/15 10:43:06;;;;;;;21.07;12.67;;;;;;;5.39;94.64;102217.47;5019692;28;20208;-73
2022/01/15 10:45:35;;;;;;;21.70;13.13;;;;;;;5.42;94.70;102222.72;5021314;28;20237;-71
2022/01/15 10:48:07;;;;;;;21.80;12.50;;;;;;;5.44;94.36;102214.75;5023171;28;20369;-71
2022/01/15 10:50:37;;;;;;;25.00;13.17;;;;;;;5.46;94.47;102213.84;5025766;28;20280;-72
2022/01/15 10:53:07;;;;;;;21.27;12.73;;;;;;;5.49;94.55;102207.63;5018853;28;20238;-72
2022/01/15 10:55:35;;;;;;;25.37;16.67;;;;;;;5.53;94.52;102204.94;5027516;28;20247;-72
2022/01/15 10:58:04;;;;;;;29.30;17.70;;;;;;;5.56;94.73;102194.28;5017918;28;20723;-72
2022/01/15 11:00:39;;;;;;;19.87;12.80;;;;;;;5.60;94.40;102197.75;5019941;28;20210;-72
2022/01/15 11:03:08;;;;;;;18.47;11.77;;;;;;;5.60;94.01;102192.44;5015483;28;20218;-70
2022/01/15 11:05:38;;;;;;;19.83;12.23;;;;;;;5.61;94.06;102190.69;5016828;28;20240;-72
2022/01/15 11:08:10;;;;;;;21.23;13.00;;;;;;;5.62;93.99;102189.78;5026395;28;20209;-72
2022/01/15 11:10:45;;;;;;;21.43;13.83;;;;;;;5.63;93.92;102191.53;5020476;28;20261;-72
2022/01/15 11:13:15;;;;;;;19.53;12.40;;;;;;;5.65;93.77;102187.09;5022160;28;20593;-71
2022/01/15 11:15:43;;;;;;;22.90;13.23;;;;;;;5.65;93.85;102179.16;5017518;28;20234;-71
2022/01/15 11:18:14;;;;;;;21.73;12.80;;;;;;;5.66;93.71;102176.50;5022692;28;20210;-71
2022/01/15 11:20:46;;;;;;;22.50;12.20;;;;;;;5.66;93.35;102176.50;5032887;28;20210;-71
2022/01/15 11:23:13;;;;;;;20.83;12.90;;;;;;;5.68;93.46;102179.97;5028136;28;20214;-71
2022/01/15 11:25:41;;;;;;;20.63;12.73;;;;;;;5.69;93.47;102176.44;5028330;28;20233;-72
2022/01/15 11:28:08;;;;;;;21.70;14.93;;;;;;;5.70;93.37;102170.25;5030332;28;20663;-72
2022/01/15 11:30:35;;;;;;;20.47;13.50;;;;;;;5.73;93.21;102158.75;5026980;28;20223;-72
2022/01/15 11:33:05;;;;;;;23.83;13.50;;;;;;;5.74;93.04;102158.69;5028100;28;20676;-72
2022/01/15 11:35:40;;;;;;;22.07;12.87;;;;;;;5.78;93.41;102163.03;5024504;28;20229;-71
2022/01/15 11:38:09;;;;;;;20.80;12.67;;;;;;;5.78;93.31;102154.22;5018641;28;20295;-72
2022/01/15 11:40:38;;;;;;;17.77;11.53;;;;;;;5.80;93.28;102157.72;5040203;28;20201;-71
2022/01/15 11:43:50;;;;;;;20.03;12.57;;;;;;;5.82;93.06;102148.00;5038204;28;20201;-72